THUNDERSTORM

Not for real navigation. The accuracy of this data is not assured See disclaimer for more information



ICAO NAME COUNTRY WIND Kt GUST Kt VIS m TEMP/DEW C BARO METAR
PATO PORTAGE GLACIER AK United States 14 31 1200 -1/-3 30.28 PATO 170853Z AUTO 13014G31KT 0.75SM -SN BR VV011 M01/M03 A3028 RMK AO2 PK WND 12031/0851 SLP254 P000
PAGK GULKANA AIRPORT AK United States 0 0 1600 -17/-19 30.38 PAGK 170853Z AUTO 00000KT 1 0.25SM -SN BR OVC016 M17/M19 A3038 RMK AO2 SLP357 P0002 60005 T11721194
PPIT 26 0 1600 -5/-6 29.71 PPIT 170909Z AUTO 06026KT 1SM -SN BR BKN009 BKN015 OVC033 M05/M06 A2971 RMK AO2 PK WND 06030/0859 CI
KJDD Mineola/Quitman, Wood County A TX United States 3 0 1600 6/6 29.72 KJDD 170855Z AUTO 01003KT 1 0.5SM DZ BR OVC003 06/06 A2972 RMK AO2 TS
KGYI Sherman/Denison, Grayson Count TX United States 8 0 3200 5/4 29.77 KGYI 170855Z AUTO 35008KT 2 0.5SM BR OVC002 05/04 A2977 RMK AO2 T00460044 TS

Show more